createdAt,value
2022-12-25T00:01:14.281Z,73.8
2022-12-25T00:06:50.230Z,73.4
2022-12-25T00:12:26.532Z,73.9
2022-12-25T00:18:04.203Z,74.2
2022-12-25T00:23:39.325Z,73
2022-12-25T00:29:18.769Z,73.2
2022-12-25T00:35:03.011Z,72.1
2022-12-25T00:40:38.077Z,73.4
2022-12-25T00:46:35.194Z,73.1
2022-12-25T00:52:09.730Z,73.3
2022-12-25T00:57:44.790Z,73.4
2022-12-25T01:03:20.069Z,73.3
2022-12-25T01:08:56.126Z,73.6
2022-12-25T01:14:32.407Z,73
2022-12-25T01:20:18.666Z,72.8
2022-12-25T01:26:03.111Z,72.6
2022-12-25T01:31:38.268Z,72.9
2022-12-25T01:37:13.697Z,73.5
2022-12-25T01:43:18.774Z,73.4
2022-12-25T01:49:19.109Z,72.6
2022-12-25T01:54:52.750Z,72.6
2022-12-25T02:00:29.795Z,73
2022-12-25T02:06:06.451Z,73.2
2022-12-25T02:11:41.603Z,73.1
2022-12-25T02:17:18.355Z,72.9
2022-12-25T02:23:10.873Z,72.9
2022-12-25T02:28:46.754Z,73.3
2022-12-25T02:34:35.457Z,73.3
2022-12-25T02:40:10.533Z,73.2
2022-12-25T02:45:46.306Z,73.2
2022-12-25T02:51:22.394Z,73.9
2022-12-25T02:57:01.122Z,74.3
2022-12-25T03:02:36.760Z,73.2
2022-12-25T03:08:23.023Z,73.8
2022-12-25T03:14:01.520Z,72.9
2022-12-25T03:19:36.592Z,73.7
2022-12-25T03:25:13.096Z,74.1
2022-12-25T03:30:48.954Z,74.3
2022-12-25T03:36:25.152Z,74.2
2022-12-25T03:42:01.334Z,74.3
2022-12-25T03:47:58.089Z,73.9
2022-12-25T03:53:31.388Z,74.2
2022-12-25T03:59:21.286Z,74.6
2022-12-25T04:05:11.936Z,74.7
2022-12-25T04:10:47.377Z,74.3
2022-12-25T04:16:23.929Z,74.8
2022-12-25T04:22:01.506Z,74.5
2022-12-25T04:27:36.739Z,74.8
2022-12-25T04:33:11.641Z,74.3
2022-12-25T04:38:46.818Z,73.6
2022-12-25T04:44:22.968Z,73.7
2022-12-25T04:49:58.213Z,73.8
2022-12-25T04:55:37.688Z,74.1
2022-12-25T05:01:13.402Z,72.7
2022-12-25T05:06:58.721Z,73.9
2022-12-25T05:12:33.864Z,74
2022-12-25T05:18:08.995Z,73.9
2022-12-25T05:23:48.850Z,74.1
2022-12-25T05:29:24.055Z,74.1
2022-12-25T05:34:59.582Z,73.7
2022-12-25T05:40:35.169Z,73.4
2022-12-25T05:46:39.935Z,73.3
2022-12-25T05:52:15.286Z,72.9
2022-12-25T05:57:50.467Z,72.9
2022-12-25T06:03:28.126Z,72.4
2022-12-25T06:09:05.353Z,72.5
2022-12-25T06:14:40.949Z,72.6
2022-12-25T06:20:26.953Z,73.1
2022-12-25T06:26:03.036Z,73.3
2022-12-25T06:31:38.715Z,73.2
2022-12-25T06:37:26.367Z,72.8
2022-12-25T06:43:05.219Z,72.9
2022-12-25T06:49:04.793Z,73.6
2022-12-25T06:54:38.060Z,73.3
2022-12-25T07:00:13.330Z,72.9
2022-12-25T07:05:58.026Z,72.7
2022-12-25T07:11:45.393Z,72.4
2022-12-25T07:17:21.142Z,71.1
2022-12-25T07:22:57.796Z,72
2022-12-25T07:28:33.384Z,70.9
2022-12-25T07:34:08.538Z,73.1
2022-12-25T07:39:47.653Z,76.4
2022-12-25T07:45:24.285Z,80.4
2022-12-25T07:50:59.924Z,80.2
2022-12-25T07:56:35.368Z,79.1
2022-12-25T08:02:19.306Z,78.8
2022-12-25T08:08:03.366Z,78.6
2022-12-25T08:13:38.479Z,78.6
2022-12-25T08:19:23.625Z,75.7
2022-12-25T08:25:00.318Z,75.9
2022-12-25T08:30:36.463Z,74.5
2022-12-25T08:36:12.568Z,74.1
2022-12-25T08:41:47.906Z,74.4
2022-12-25T08:47:23.776Z,73.6
2022-12-25T08:53:02.484Z,73.8
2022-12-25T08:58:45.359Z,74.3
2022-12-25T09:04:28.283Z,73.4
2022-12-25T09:10:10.191Z,73.5
2022-12-25T09:15:51.307Z,72.8
2022-12-25T09:21:54.125Z,74.1
2022-12-25T09:27:56.791Z,75.9
2022-12-25T09:33:52.329Z,76.1
2022-12-25T09:39:30.508Z,78.6
2022-12-25T09:45:20.944Z,76.7
2022-12-25T09:50:58.244Z,75.5
2022-12-25T09:56:34.517Z,72.7
2022-12-25T10:02:12.803Z,65.9
2022-12-25T10:07:50.187Z,67.9
2022-12-25T10:13:25.805Z,68.4
2022-12-25T10:19:01.319Z,68.7
2022-12-25T10:24:37.044Z,61.4
2022-12-25T10:30:12.186Z,64.3
2022-12-25T10:35:47.552Z,64.8
2022-12-25T10:41:23.973Z,61
2022-12-25T10:46:59.617Z,64.4
2022-12-25T10:52:40.279Z,64.8
2022-12-25T10:58:16.281Z,64.7
2022-12-25T11:03:51.773Z,60.7
2022-12-25T11:09:29.314Z,59.2
2022-12-25T11:15:07.196Z,59
2022-12-25T11:20:47.715Z,58.2
2022-12-25T11:26:23.308Z,58.5
2022-12-25T11:31:58.961Z,56.8
2022-12-25T11:37:35.969Z,58.2
2022-12-25T11:43:15.459Z,56.3
2022-12-25T11:49:15.316Z,54.3
2022-12-25T11:54:55.268Z,56.9
2022-12-25T12:00:52.460Z,58.6
2022-12-25T12:06:30.176Z,54.2
2022-12-25T12:12:05.677Z,55.7
2022-12-25T12:18:23.760Z,55.7
2022-12-25T12:24:25.015Z,55.5
2022-12-25T12:30:29.451Z,51.7
2022-12-25T12:36:05.340Z,51.7
2022-12-25T12:42:12.163Z,52
2022-12-25T12:48:09.498Z,47.7
2022-12-25T12:53:42.592Z,49
2022-12-25T12:59:31.812Z,48.9
2022-12-25T13:05:12.840Z,47.6
2022-12-25T13:10:51.896Z,48.6
2022-12-25T13:16:28.436Z,44.6
2022-12-25T13:22:20.736Z,44.9
2022-12-25T13:27:58.995Z,44.5
2022-12-25T13:33:34.479Z,45.2
2022-12-25T13:39:11.435Z,44.3
2022-12-25T13:44:51.725Z,44
2022-12-25T13:50:47.592Z,44.4
2022-12-25T13:56:54.399Z,42.9
2022-12-25T14:02:30.902Z,43.4
2022-12-25T14:08:07.981Z,41.8
2022-12-25T14:13:49.697Z,42.3
2022-12-25T14:19:33.384Z,41.3
2022-12-25T14:25:09.790Z,37.5
2022-12-25T14:30:45.054Z,42.9
2022-12-25T14:36:24.784Z,46.2
2022-12-25T14:42:11.599Z,48.5
2022-12-25T14:48:29.607Z,51.6
2022-12-25T14:54:03.696Z,52.3
2022-12-25T14:59:38.598Z,51.3
2022-12-25T15:05:13.736Z,51
2022-12-25T15:11:04.018Z,50.8
2022-12-25T15:16:41.043Z,51.5
2022-12-25T15:22:17.239Z,55.2
2022-12-25T15:27:59.361Z,56.5
2022-12-25T15:34:38.933Z,53.7
2022-12-25T15:40:29.120Z,56.2
2022-12-25T15:46:32.455Z,57.4
2022-12-25T15:52:07.614Z,58.3
2022-12-25T15:57:46.795Z,57.9
2022-12-25T16:03:37.862Z,58.8
2022-12-25T16:09:16.028Z,57.3
2022-12-25T16:14:56.855Z,60.7
2022-12-25T16:20:42.751Z,61.1
2022-12-25T16:26:37.002Z,58.9
2022-12-25T16:32:13.656Z,58.3
2022-12-25T16:37:52.181Z,57.7
2022-12-25T16:43:27.858Z,59.2
2022-12-25T16:49:03.141Z,59
2022-12-25T16:54:38.799Z,61.1
2022-12-25T17:00:18.915Z,61.2
2022-12-25T17:06:10.979Z,62
2022-12-25T17:11:46.225Z,61.2
2022-12-25T17:17:30.029Z,62.5
2022-12-25T17:23:05.520Z,63.6
2022-12-25T17:28:44.383Z,63.4
2022-12-25T17:34:40.481Z,62.8
2022-12-25T17:40:15.309Z,64.5
2022-12-25T17:45:50.188Z,65
2022-12-25T17:51:44.249Z,68.3
2022-12-25T17:57:19.406Z,66.4
2022-12-25T18:02:55.306Z,64.4
2022-12-25T18:08:39.880Z,63.7
2022-12-25T18:14:15.637Z,63.5
2022-12-25T18:19:50.775Z,63.5
2022-12-25T18:25:26.165Z,63.4
2022-12-25T18:31:01.956Z,63.2
2022-12-25T18:36:38.012Z,63.2
2022-12-25T18:42:13.288Z,63.4
2022-12-25T18:47:48.568Z,63
2022-12-25T18:53:23.816Z,62.3
2022-12-25T18:58:59.717Z,61.6
2022-12-25T19:04:36.391Z,61.5
2022-12-25T19:10:11.523Z,60.6
2022-12-25T19:15:48.035Z,60.5
2022-12-25T19:21:23.742Z,61.5
2022-12-25T19:26:58.861Z,62
2022-12-25T19:32:33.742Z,62.4
2022-12-25T19:38:08.817Z,62.4
2022-12-25T19:43:44.043Z,62.1
2022-12-25T19:49:45.824Z,61.6
2022-12-25T19:55:36.198Z,61.4
2022-12-25T20:01:17.154Z,61.5
2022-12-25T20:06:56.632Z,61.5
2022-12-25T20:12:39.081Z,61.2
2022-12-25T20:18:20.165Z,62.1
2022-12-25T20:23:55.948Z,62.4
2022-12-25T20:29:33.850Z,62.5
2022-12-25T20:35:13.273Z,61.6
2022-12-25T20:41:28.223Z,61.5
2022-12-25T20:47:32.030Z,62.3
2022-12-25T20:53:05.954Z,62.5
2022-12-25T20:58:44.425Z,61.6
2022-12-25T21:04:22.011Z,60.8
2022-12-25T21:10:02.896Z,60.8
2022-12-25T21:15:42.137Z,60.4
2022-12-25T21:21:18.837Z,60.9
2022-12-25T21:26:56.151Z,60.8
2022-12-25T21:32:34.704Z,61.1
2022-12-25T21:38:09.999Z,62
2022-12-25T21:43:52.368Z,63.2
2022-12-25T21:49:49.213Z,63.7
2022-12-25T21:55:23.743Z,64.3
2022-12-25T22:00:59.917Z,64.5
2022-12-25T22:06:37.191Z,64.1
2022-12-25T22:12:12.195Z,63.2
2022-12-25T22:17:47.499Z,62.5
2022-12-25T22:23:25.808Z,61.1
2022-12-25T22:29:01.370Z,60.3
2022-12-25T22:34:36.585Z,60
2022-12-25T22:40:11.877Z,59.4
2022-12-25T22:45:48.523Z,58.9
2022-12-25T22:51:24.203Z,60
2022-12-25T22:56:59.350Z,61.3
2022-12-25T23:02:37.607Z,62.4
2022-12-25T23:08:14.878Z,62.7
2022-12-25T23:13:50.305Z,63.3
2022-12-25T23:19:25.280Z,63.2
2022-12-25T23:25:00.157Z,62.1
2022-12-25T23:30:35.898Z,60.9
2022-12-25T23:36:10.935Z,61.4
2022-12-25T23:41:46.881Z,61.4
2022-12-25T23:47:44.319Z,62.1
2022-12-25T23:53:17.293Z,62.9
2022-12-25T23:58:53.652Z,62.8
